• Join FlightAware (Why Join?)
  • Login
  • US Flag 
08:59AM EST


 

Airport Tracker/Info


-or-


 

Live Flight TrackerFlight Track Log ✈ SKW2958 ✈ 30-Apr-2012 ✈ KSBA - KPHX

Flight Track Log - Related Links

Times and Time Zones

All times are in EDT time to prevent confusion due to time zone crossing. See the SKW2958 flight status page for this flight to view local times or setup timezone preferences in your user account.

Time Position Orientation Groundspeed Altitude Reporting Facility
EDT Latitude Longitude Course Direction KTS MPH feet Rate Location/Type
10:31PM 34.4258 -119.8206 130° Southeast 148 170 1,000  Level Los Angeles Center
10:32PM 34.3919 -119.7714 136° Southeast 217 250 2,900 2,596 Climbing Los Angeles Center
10:33PM 34.3556 -119.7294 158° South 267 307 5,500 2,727 Climbing Los Angeles Center
10:34PM 34.2878 -119.6964 182° South 265 305 7,900 2,350 Climbing Los Angeles Center
10:35PM 34.2000 -119.7003 150° Southeast 279 321 10,200 2,350 Climbing Los Angeles Center
10:36PM 34.1244 -119.6467 126° Southeast 298 343 12,600 2,550 Climbing Los Angeles Center
10:37PM 34.0686 -119.5542 127° Southeast 306 352 15,300 2,450 Climbing Los Angeles Center
10:38PM 34.0067 -119.4564 126° Southeast 318 366 17,500 2,100 Climbing Los Angeles Center
10:39PM 33.9486 -119.3589 126° Southeast 340 391 19,500 1,750 Climbing Los Angeles Center
10:40PM 33.8886 -119.2592 126° Southeast 353 406 21,000 1,450 Climbing Los Angeles Center
10:41PM 33.8286 -119.1594 127° Southeast 364 419 22,400 1,450 Climbing Los Angeles Center
10:42PM 33.7622 -119.0544 126° Southeast 375 432 23,900 1,400 Climbing Los Angeles Center
10:43PM 33.6981 -118.9475 108° East 381 438 25,200 1,200 Climbing Los Angeles Center
10:44PM 33.6653 -118.8292 91° East 380 437 26,300 1,000 Climbing Los Angeles Center
10:45PM 33.6636 -118.7092 90° East 373 429 27,200 1,000 Climbing Los Angeles Center
10:46PM 33.6644 -118.5719 92° East 385 443 28,300 1,000 Climbing Los Angeles Center
10:47PM 33.6606 -118.4422 88° East 392 451 29,200 950 Climbing Los Angeles Center
10:48PM 33.6658 -118.2825 92° East 416 479 30,200 900 Climbing Los Angeles Center
10:49PM 33.6619 -118.1403 90° East 423 487 31,000 650 Climbing Los Angeles Center
10:50PM 33.6617 -118.0278 90° East 423 487 31,500 600 Climbing Los Angeles Center
10:51PM 33.6619 -117.8731 91° East 418 481 32,200 600 Climbing Los Angeles Center
10:52PM 33.6597 -117.7283 90° East 424 488 32,700 400 Climbing Los Angeles Center
10:53PM 33.6594 -117.5836 91° East 424 488 33,000 150 Climbing Los Angeles Center
10:54PM 33.6569 -117.4364 91° East 424 488 33,000  Level Los Angeles Center
10:55PM 33.6542 -117.2917 93° East 429 494 33,000  Level Los Angeles Center
10:56PM 33.6472 -117.1392 92° East 421 484 33,000  Level Los Angeles Center
10:57PM 33.6422 -116.9944 94° East 421 484 33,000  Level Los Angeles Center
10:58PM 33.6347 -116.8497 94° East 427 491 33,000  Level Los Angeles Center
10:59PM 33.6272 -116.7050 95° East 427 491 33,000  Level Los Angeles Center
11:00PM 33.6172 -116.5753 93° East 427 491 33,000  Level Los Angeles Center
11:01PM 33.6114 -116.4306 94° East 427 491 33,000  Level Los Angeles Center
11:02PM 33.6033 -116.2833 94° East 427 491 33,000  Level Los Angeles Center
11:03PM 33.5950 -116.1436 93° East 427 491 33,000  Level Los Angeles Center
11:04PM 33.5889 -116.0039 94° East 422 486 33,000  Level Los Angeles Center
11:05PM 33.5803 -115.8619 94° East 422 486 33,000  Level Los Angeles Center
11:06PM 33.5717 -115.7247 94° East 422 486 33,000  Level Los Angeles Center
11:07PM 33.5628 -115.5878 94° East 422 486 33,000  Level Los Angeles Center
11:08PM 33.5536 -115.4458 94° East 422 486 33,000  Level Los Angeles Center
11:09PM 33.5444 -115.3061 95° East 422 486 33,000  Level Los Angeles Center
11:10PM 33.5350 -115.1667 94° East 422 486 33,000  Level Los Angeles Center
11:11PM 33.5275 -115.0272 95° East 422 486 33,000  Level Los Angeles Center
11:12PM 33.5181 -114.8881 95° East 422 486 33,000 -250 Level Los Angeles Center
11:13PM 33.5081 -114.7461 96° East 422 486 32,500 -1,100 Descending Los Angeles Center
11:14PM 33.4958 -114.5994 94° East 427 491 30,800 -1,655 Descending Los Angeles Center
11:16PM 33.4747 -114.2511 96° East 443 510 26,900 -1,626 Descending Albuquerque Center
11:17PM 33.4636 -114.1158 101° East 429 494 25,300 -1,000 Descending Albuquerque Center
11:18PM 33.4422 -113.9797 98° East 423 487 24,900 -650 Descending Albuquerque Center
11:19PM 33.4247 -113.8392 100° East 415 478 24,000 -450 Descending Albuquerque Center
11:20PM 33.4033 -113.6958 100° East 422 486 24,000  Level Albuquerque Center
11:21PM 33.3817 -113.5475 98° East 435 501 24,000 -500 Level Albuquerque Center
11:22PM 33.3625 -113.3944 100° East 453 521 23,000 -1,500 Descending Albuquerque Center
11:23PM 33.3408 -113.2436 99° East 458 527 21,000 -2,150 Descending Albuquerque Center
11:24PM 33.3228 -113.1008 100° East 446 513 18,700 -2,400 Descending Albuquerque Center
11:25PM 33.3022 -112.9628 100° East 440 506 16,200 -1,500 Descending Albuquerque Center
11:26PM 33.2844 -112.8472 92° East 397 457 15,700 -550 Descending Albuquerque Center
11:27PM 33.2814 -112.7353 87° East 354 407 15,100 -700 Descending Albuquerque Center
11:28PM 33.2861 -112.6264 88° East 337 388 14,300 -1,100 Descending Albuquerque Center
11:29PM 33.2894 -112.5025 87° East 331 381 12,900 -1,236 Descending Albuquerque Center
11:32PM 33.3000 -112.2667 90° East 301 346 10,200 -1,025 Descending Phoenix TRACON
11:33PM 33.3000 -112.1667 77° East 270 311 9,500 -650 Descending Phoenix TRACON
11:34PM 33.3167 -112.0833 77° East 259 298 8,900 -850 Descending Phoenix TRACON
11:35PM 33.3333 -112.0000 77° East 255 293 7,800 -1,000 Descending Phoenix TRACON
11:36PM 33.3500 -111.9167 90° East 251 289 6,900 -1,150 Descending Phoenix TRACON
11:37PM 33.3500 -111.8333 29° Northeast 248 285 5,500 -942 Descending Phoenix TRACON
11:38PM 33.4000 -111.8000 29° Northeast 229 264 5,000 -492 Descending Phoenix TRACON